Hutchinson County Airport - Borger, Texas, United States - FAA: BGD - ICAO: KBGD - IATA: BGD

 
  Longest Runway: 6,300 feet   Approach Types:    Customs Landing Rights Airport: No   Port of Entry: No

Local Forecast

Today (2/23): Sunny, with a high near 57. Wind chill values between 26 and 36 early. East northeast wind 5 to 15 mph becoming southeast in the afternoon. Winds could gust as high as 20 mph.

Tonight (2/23): Partly cloudy, with a low around 35. Southeast wind 10 to 15 mph becoming south southwest after midnight. Winds could gust as high as 20 mph.

Saturday (2/24): Sunny, with a high near 54. Wind chill values between 27 and 37 early. Breezy, with a southwest wind 15 to 25 mph becoming north northwest in the afternoon. Winds could gust as high as 30 mph.

Saturday Night (2/24): Clear, with a low around 26. Wind chill values between 18 and 23. North northwest wind 10 to 15 mph becoming south southeast in the evening. Winds could gust as high as 20 mph.

Sunday (2/25): Sunny, with a high near 57. West southwest wind 10 to 15 mph becoming northwest in the afternoon. Winds could gust as high as 25 mph.

Sunday Night (2/25): Clear, with a low around 25. North northwest wind 10 to 15 mph becoming south southeast 5 to 10 mph in the evening.

Monday (2/26): Sunny, with a high near 63. Breezy, with a south southwest wind 10 to 15 mph increasing to 20 to 25 mph in the afternoon. Winds could gust as high as 35 mph.



Current Weather (METAR)

2018/05/22 23:51 KBGD 222351Z AUTO 15013G22KT 10SM CLR 30/12 A2992 RMK AO2 SLP090 T03000117 10311 20272 56011

BORGER HUTCHINSON CO AIRPORT , TX, United States (KBGD) 35-42N 101-24W 927M May 22, 2018 - 07:51 PM EDT / 2018.05.22 2351 UTC Wind: from the SSE (150 degrees) at 15 MPH (13 KT) gusting to 25 MPH (22 KT):0 Visibility: 10 mile(s):0 Sky conditions: clear Temperature: 86.0 F (30.0 C) Dew Point: 53.1 F (11.7 C) Relative Humidity: 32% Pressure (altimeter): 29.92 in. Hg (1013 hPa) Pressure tendency: 0.03 inches (1.1 hPa) lower than three hours ago ob: KBGD 222351Z AUTO 15013G22KT 10SM CLR 30/12 A2992 RMK AO2 SLP090 T03000117 10311 20272 56011 cycle: 0

Terminal Forecast (TAF)